createdAt,value
2018-06-10T00:00:07.806Z,22.80
2018-06-10T00:05:12.169Z,22.80
2018-06-10T00:10:16.507Z,22.80
2018-06-10T00:15:20.453Z,22.70
2018-06-10T00:20:23.997Z,22.80
2018-06-10T00:25:29.471Z,22.80
2018-06-10T00:30:33.279Z,22.80
2018-06-10T00:35:36.818Z,22.70
2018-06-10T00:40:40.372Z,22.70
2018-06-10T00:45:43.928Z,22.60
2018-06-10T00:50:47.487Z,22.50
2018-06-10T00:55:51.047Z,22.40
2018-06-10T01:00:54.648Z,22.40
2018-06-10T01:05:58.180Z,22.40
2018-06-10T01:11:01.715Z,22.30
2018-06-10T01:16:05.362Z,22.20
2018-06-10T01:21:08.892Z,22.30
2018-06-10T01:26:17.635Z,22.20
2018-06-10T01:31:21.211Z,22.10
2018-06-10T01:36:25.336Z,22.00
2018-06-10T01:41:29.172Z,22.00
2018-06-10T01:46:32.741Z,22.00
2018-06-10T01:51:37.796Z,21.80
2018-06-10T01:56:42.281Z,21.80
2018-06-10T02:01:45.849Z,21.70
2018-06-10T02:06:50.184Z,21.70
2018-06-10T02:11:54.369Z,21.70
2018-06-10T02:16:57.900Z,21.70
2018-06-10T02:22:01.464Z,21.60
2018-06-10T02:27:05.008Z,21.50
2018-06-10T02:32:08.928Z,21.40
2018-06-10T02:37:14.412Z,21.40
2018-06-10T02:42:18.111Z,21.30
2018-06-10T02:47:21.753Z,21.30
2018-06-10T02:52:25.543Z,21.20
2018-06-10T03:02:32.309Z,21.10
2018-06-10T03:07:36.189Z,21.10
2018-06-10T03:12:39.700Z,21.00
2018-06-10T03:17:43.236Z,21.00
2018-06-10T03:22:48.792Z,20.90
2018-06-10T03:27:52.284Z,20.90
2018-06-10T03:32:55.777Z,20.80
2018-06-10T03:37:59.416Z,20.70
2018-06-10T03:43:03.100Z,20.70
2018-06-10T03:48:06.599Z,20.70
2018-06-10T03:53:10.728Z,20.70
2018-06-10T03:58:14.252Z,20.60
2018-06-10T04:03:17.784Z,20.60
2018-06-10T04:08:22.159Z,20.70
2018-06-10T04:13:30.580Z,20.70
2018-06-10T04:18:34.094Z,20.70
2018-06-10T04:23:37.592Z,20.70
2018-06-10T04:28:41.095Z,20.70
2018-06-10T04:33:44.603Z,20.80
2018-06-10T04:38:48.085Z,20.90
2018-06-10T04:43:51.605Z,20.90
2018-06-10T04:48:55.652Z,20.90
2018-06-10T04:54:00.388Z,21.10
2018-06-10T04:59:03.915Z,21.20
2018-06-10T05:04:07.436Z,21.30
2018-06-10T05:09:11.236Z,21.40
2018-06-10T05:14:14.749Z,21.60
2018-06-10T05:19:18.255Z,21.60
2018-06-10T05:24:21.755Z,21.70
2018-06-10T05:29:25.307Z,21.80
2018-06-10T05:34:28.956Z,21.90
2018-06-10T05:39:32.470Z,22.20
2018-06-10T05:44:36.004Z,22.20
2018-06-10T05:49:39.503Z,22.40
2018-06-10T05:54:43.066Z,22.40
2018-06-10T05:59:46.674Z,22.60
2018-06-10T06:04:50.197Z,22.70
2018-06-10T06:09:54.014Z,22.90
2018-06-10T06:14:57.824Z,23.00
2018-06-10T06:20:02.081Z,23.10
2018-06-10T06:25:05.603Z,23.20
2018-06-10T06:30:11.884Z,23.30
2018-06-10T06:35:15.934Z,23.40
2018-06-10T06:40:19.763Z,23.50
2018-06-10T06:45:23.841Z,23.80
2018-06-10T06:50:27.367Z,24.10
2018-06-10T06:55:31.265Z,24.40
2018-06-10T07:00:35.873Z,24.70
2018-06-10T07:05:39.379Z,24.40
2018-06-10T07:10:42.896Z,24.20
2018-06-10T07:15:48.348Z,23.90
2018-06-10T07:20:52.469Z,23.90
2018-06-10T07:25:56.193Z,23.70
2018-06-10T07:30:59.701Z,24.00
2018-06-10T07:36:03.473Z,24.30
2018-06-10T07:46:10.561Z,24.70
2018-06-10T07:51:14.437Z,24.60
2018-06-10T07:56:18.802Z,24.10
2018-06-10T08:01:22.803Z,24.40
2018-06-10T08:06:26.351Z,24.40
2018-06-10T08:11:29.972Z,24.40
2018-06-10T08:16:33.563Z,24.70
2018-06-10T08:21:37.163Z,25.00
2018-06-10T08:26:40.722Z,25.00
2018-06-10T08:31:44.316Z,25.30
2018-06-10T08:36:47.867Z,25.50
2018-06-10T08:41:51.403Z,25.50
2018-06-10T08:46:55.288Z,25.80
2018-06-10T08:51:58.830Z,25.50
2018-06-10T08:57:04.304Z,25.40
2018-06-10T09:02:09.663Z,25.60
2018-06-10T09:07:13.180Z,25.90
2018-06-10T09:12:16.709Z,26.00
2018-06-10T09:17:20.384Z,26.30
2018-06-10T09:22:24.845Z,26.60
2018-06-10T09:27:29.948Z,26.70
2018-06-10T09:32:33.561Z,26.70
2018-06-10T09:37:37.077Z,26.70
2018-06-10T09:42:40.598Z,26.80
2018-06-10T09:47:44.173Z,26.50
2018-06-10T09:52:47.701Z,26.80
2018-06-10T09:57:52.879Z,26.60
2018-06-10T10:02:57.527Z,26.80
2018-06-10T10:08:03.227Z,27.20
2018-06-10T10:13:08.314Z,27.30
2018-06-10T10:18:12.911Z,27.50
2018-06-10T10:23:17.428Z,27.80
2018-06-10T10:28:20.974Z,27.80
2018-06-10T10:38:27.815Z,28.30
2018-06-10T10:48:34.815Z,28.50
2018-06-10T10:53:38.374Z,28.70
2018-06-10T10:58:41.948Z,28.70
2018-06-10T11:03:45.500Z,29.10
2018-06-10T11:08:49.280Z,29.40
2018-06-10T11:13:52.805Z,29.20
2018-06-10T11:18:56.372Z,29.70
2018-06-10T11:24:00.752Z,29.80
2018-06-10T11:29:04.263Z,30.00
2018-06-10T11:34:07.795Z,29.80
2018-06-10T11:39:11.332Z,30.10
2018-06-10T11:44:14.852Z,29.80
2018-06-10T11:49:18.371Z,29.90
2018-06-10T11:54:22.193Z,29.80
2018-06-10T11:59:25.756Z,30.20
2018-06-10T12:04:29.268Z,29.90
2018-06-10T12:09:32.792Z,30.30
2018-06-10T12:14:36.528Z,30.60
2018-06-10T12:19:40.007Z,30.80
2018-06-10T12:24:46.194Z,30.60
2018-06-10T12:29:50.454Z,30.20
2018-06-10T12:34:53.973Z,30.00
2018-06-10T12:39:58.140Z,30.10
2018-06-10T12:45:01.961Z,29.90
2018-06-10T12:50:06.473Z,29.90
2018-06-10T12:55:10.024Z,29.80
2018-06-10T13:00:13.600Z,30.30
2018-06-10T13:05:18.151Z,30.80
2018-06-10T13:10:21.718Z,30.90
2018-06-10T13:15:25.272Z,31.00
2018-06-10T13:20:28.972Z,31.20
2018-06-10T13:25:32.522Z,31.30
2018-06-10T13:30:36.125Z,31.20
2018-06-10T13:35:39.713Z,30.60
2018-06-10T13:40:43.742Z,30.30
2018-06-10T13:45:47.278Z,30.30
2018-06-10T13:50:51.949Z,30.00
2018-06-10T13:55:57.498Z,30.30
2018-06-10T14:01:02.941Z,30.20
2018-06-10T14:06:07.219Z,29.80
2018-06-10T14:11:10.706Z,30.30
2018-06-10T14:16:14.327Z,30.70
2018-06-10T14:21:17.886Z,30.40
2018-06-10T14:26:21.430Z,30.50
2018-06-10T14:31:25.582Z,30.40
2018-06-10T14:36:29.119Z,30.80
2018-06-10T14:41:32.656Z,30.60
2018-06-10T14:46:37.188Z,30.60
2018-06-10T14:51:40.700Z,30.80
2018-06-10T14:56:44.539Z,30.50
2018-06-10T15:01:48.404Z,30.60
2018-06-10T15:06:51.952Z,30.30
2018-06-10T15:11:55.523Z,29.80
2018-06-10T15:16:59.079Z,30.00
2018-06-10T15:22:02.632Z,30.50
2018-06-10T15:32:09.393Z,30.50
2018-06-10T15:37:12.948Z,30.80
2018-06-10T15:42:16.567Z,31.00
2018-06-10T15:47:20.496Z,30.60
2018-06-10T15:52:24.029Z,31.00
2018-06-10T15:57:27.603Z,30.70
2018-06-10T16:02:31.464Z,30.60
2018-06-10T16:07:34.966Z,30.60
2018-06-10T16:12:38.470Z,30.90
2018-06-10T16:17:41.981Z,31.00
2018-06-10T16:28:05.278Z,31.40
2018-06-10T16:33:08.795Z,32.00
2018-06-10T16:38:12.347Z,32.20
2018-06-10T16:43:16.223Z,31.80
2018-06-10T16:48:19.714Z,31.50
2018-06-10T16:53:23.481Z,31.10
2018-06-10T16:58:27.262Z,30.90
2018-06-10T17:03:30.791Z,30.90
2018-06-10T17:08:34.372Z,31.30
2018-06-10T17:13:38.203Z,31.30
2018-06-10T17:18:41.748Z,31.30
2018-06-10T17:23:46.152Z,31.30
2018-06-10T17:28:49.704Z,31.00
2018-06-10T17:33:53.315Z,30.90
2018-06-10T17:38:56.903Z,30.80
2018-06-10T17:44:00.749Z,30.80
2018-06-10T17:49:04.456Z,30.90
2018-06-10T17:54:08.032Z,30.70
2018-06-10T17:59:11.649Z,30.60
2018-06-10T18:09:18.348Z,30.20
2018-06-10T18:14:22.011Z,30.20
2018-06-10T18:19:25.787Z,30.10
2018-06-10T18:24:31.174Z,29.80
2018-06-10T18:29:36.580Z,29.90
2018-06-10T18:34:40.143Z,30.20
2018-06-10T18:39:44.001Z,30.20
2018-06-10T18:44:47.564Z,30.10
2018-06-10T18:49:51.571Z,29.90
2018-06-10T18:54:56.503Z,29.80
2018-06-10T19:00:00.503Z,29.60
2018-06-10T19:05:04.924Z,29.40
2018-06-10T19:10:08.436Z,29.10
2018-06-10T19:15:11.987Z,28.80
2018-06-10T19:20:15.778Z,28.60
2018-06-10T19:25:19.319Z,28.30
2018-06-10T19:30:22.844Z,28.10
2018-06-10T19:35:26.376Z,28.00
2018-06-10T19:40:29.895Z,27.80
2018-06-10T19:45:33.453Z,27.70
2018-06-10T19:50:37.302Z,27.50
2018-06-10T19:55:41.017Z,27.30
2018-06-10T20:00:44.620Z,27.20
2018-06-10T20:05:48.532Z,27.00
2018-06-10T20:10:52.060Z,26.90
2018-06-10T20:15:55.650Z,26.80
2018-06-10T20:20:59.187Z,26.70
2018-06-10T20:26:02.703Z,26.70
2018-06-10T20:31:07.234Z,26.70
2018-06-10T20:36:10.745Z,26.60
2018-06-10T20:41:14.903Z,26.60
2018-06-10T20:46:18.430Z,26.50
2018-06-10T20:51:21.929Z,26.40
2018-06-10T20:56:25.553Z,26.40
2018-06-10T21:01:29.249Z,26.20
2018-06-10T21:06:32.991Z,26.10
2018-06-10T21:11:36.713Z,26.20
2018-06-10T21:16:40.263Z,26.10
2018-06-10T21:21:44.103Z,25.90
2018-06-10T21:26:47.946Z,25.70
2018-06-10T21:31:51.715Z,25.60
2018-06-10T21:36:55.394Z,25.50
2018-06-10T21:41:58.912Z,25.30
2018-06-10T21:47:02.456Z,25.20
2018-06-10T21:52:06.011Z,25.20
2018-06-10T21:57:09.797Z,25.00
2018-06-10T22:02:13.380Z,24.90
2018-06-10T22:07:17.219Z,24.80
2018-06-10T22:12:21.005Z,24.80
2018-06-10T22:17:24.509Z,24.80
2018-06-10T22:22:28.000Z,24.90
2018-06-10T22:27:32.163Z,24.70
2018-06-10T22:32:35.673Z,24.50
2018-06-10T22:37:39.178Z,24.40
2018-06-10T22:42:42.720Z,24.30
2018-06-10T22:47:46.621Z,24.20
2018-06-10T22:52:59.328Z,24.00
2018-06-10T22:58:02.867Z,24.10
2018-06-10T23:08:09.642Z,23.90
2018-06-10T23:13:13.799Z,23.80
2018-06-10T23:18:18.608Z,23.80
2018-06-10T23:23:22.119Z,23.70
2018-06-10T23:28:25.668Z,23.50
2018-06-10T23:33:29.860Z,23.40
2018-06-10T23:38:35.259Z,23.40
2018-06-10T23:43:38.804Z,23.30
2018-06-10T23:48:42.296Z,23.20
2018-06-10T23:53:45.804Z,23.30
2018-06-10T23:58:49.340Z,23.30
